createdAt,value
2022-12-12T00:02:18.614Z,100101.59
2022-12-12T00:04:45.401Z,100101.75
2022-12-12T00:07:11.786Z,100104.66
2022-12-12T00:09:38.364Z,100096.09
2022-12-12T00:12:04.817Z,100091.97
2022-12-12T00:14:31.199Z,100096.38
2022-12-12T00:16:57.552Z,100099.19
2022-12-12T00:19:23.937Z,100091.75
2022-12-12T00:21:50.504Z,100097.97
2022-12-12T00:24:16.894Z,100094.66
2022-12-12T00:26:43.240Z,100100.09
2022-12-12T00:29:10.081Z,100098.56
2022-12-12T00:31:36.547Z,100097.06
2022-12-12T00:34:03.018Z,100094.59
2022-12-12T00:36:30.544Z,100108.06
2022-12-12T00:38:56.930Z,100103.78
2022-12-12T00:41:23.912Z,100100.47
2022-12-12T00:43:50.471Z,100098.13
2022-12-12T00:46:21.437Z,100099.13
2022-12-12T00:48:49.651Z,100094.16
2022-12-12T00:51:20.782Z,100093.50
2022-12-12T00:53:47.234Z,100087.53
2022-12-12T00:56:15.326Z,100095.44
2022-12-12T00:58:41.702Z,100093.09
2022-12-12T01:01:28.371Z,100098.38
2022-12-12T01:03:55.091Z,100104.59
2022-12-12T01:06:22.324Z,100110.03
2022-12-12T01:08:48.874Z,100102.28
2022-12-12T01:11:16.414Z,100105.88
2022-12-12T01:13:43.258Z,100112.09
2022-12-12T01:16:09.813Z,100113.06
2022-12-12T01:18:36.459Z,100116.72
2022-12-12T01:21:03.462Z,100117.69
2022-12-12T01:23:32.218Z,100126.53
2022-12-12T01:26:02.218Z,100129.47
2022-12-12T01:28:28.561Z,100127.81
2022-12-12T01:30:54.998Z,100124.50
2022-12-12T01:33:21.518Z,100133.38
2022-12-12T01:35:47.908Z,100137.00
2022-12-12T01:38:14.290Z,100130.06
2022-12-12T01:40:40.678Z,100138.91
2022-12-12T01:43:11.657Z,100141.72
2022-12-12T01:45:56.533Z,100140.03
2022-12-12T01:48:25.113Z,100144.63
2022-12-12T01:50:51.608Z,100143.78
2022-12-12T01:53:19.406Z,100146.44
2022-12-12T01:55:47.374Z,100145.75
2022-12-12T01:58:14.274Z,100144.09
2022-12-12T02:00:41.261Z,100147.69
2022-12-12T02:03:07.679Z,100142.72
2022-12-12T02:05:36.629Z,100141.06
2022-12-12T02:08:04.233Z,100143.03
2022-12-12T02:10:30.707Z,100142.50
2022-12-12T02:13:02.403Z,100140.00
2022-12-12T02:15:32.452Z,100136.69
2022-12-12T02:18:13.009Z,100136.03
2022-12-12T02:20:43.128Z,100134.34
2022-12-12T02:23:27.700Z,100142.41
2022-12-12T02:26:20.516Z,100136.28
2022-12-12T02:29:05.793Z,100142.56
2022-12-12T02:31:39.041Z,100146.00
2022-12-12T02:34:25.677Z,100138.25
2022-12-12T02:36:52.032Z,100139.22
2022-12-12T02:39:23.056Z,100145.44
2022-12-12T02:41:58.265Z,100155.97
2022-12-12T02:44:28.243Z,100161.53
2022-12-12T02:47:04.081Z,100170.22
2022-12-12T02:49:35.368Z,100165.13
2022-12-12T02:52:02.237Z,100170.69
2022-12-12T02:54:29.798Z,100168.06
2022-12-12T02:56:57.687Z,100165.72
2022-12-12T02:59:27.128Z,100165.72
2022-12-12T03:01:56.583Z,100169.31
2022-12-12T03:04:50.196Z,100170.44
2022-12-12T03:07:48.281Z,100168.75
2022-12-12T03:10:31.144Z,100171.53
2022-12-12T03:13:03.688Z,100166.59
2022-12-12T03:15:39.497Z,100173.78
2022-12-12T03:18:05.857Z,100166.03
2022-12-12T03:20:37.264Z,100172.09
2022-12-12T03:23:13.985Z,100174.88
2022-12-12T03:25:46.158Z,100167.13
2022-12-12T03:28:32.861Z,100170.75
2022-12-12T03:31:03.868Z,100162.19
2022-12-12T03:33:34.639Z,100160.53
2022-12-12T03:36:10.281Z,100162.44
2022-12-12T03:38:39.732Z,100157.19
2022-12-12T03:41:08.857Z,100149.59
2022-12-12T03:43:37.614Z,100149.75
2022-12-12T03:46:08.689Z,100150.56
2022-12-12T03:48:38.523Z,100151.69
2022-12-12T03:51:08.218Z,100145.59
2022-12-12T03:53:46.998Z,100145.59
2022-12-12T03:56:19.057Z,100139.53
2022-12-12T03:59:05.721Z,100142.28
2022-12-12T04:01:46.369Z,100151.16
2022-12-12T04:04:34.714Z,100148.78
2022-12-12T04:07:03.670Z,100149.78
2022-12-12T04:09:48.926Z,100145.50
2022-12-12T04:12:42.139Z,100147.41
2022-12-12T04:15:08.470Z,100151.00
2022-12-12T04:17:41.021Z,100155.59
2022-12-12T04:20:34.678Z,100153.94
2022-12-12T04:23:16.062Z,100162.78
2022-12-12T04:26:04.329Z,100157.53
2022-12-12T04:28:32.314Z,100159.47
2022-12-12T04:31:01.750Z,100161.16
2022-12-12T04:33:30.591Z,100162.09
2022-12-12T04:35:58.313Z,100161.41
2022-12-12T04:38:25.613Z,100165.84
2022-12-12T04:40:54.304Z,100168.63
2022-12-12T04:43:23.378Z,100163.38
2022-12-12T04:46:05.883Z,100166.13
2022-12-12T04:48:38.561Z,100158.38
2022-12-12T04:51:06.720Z,100169.59
2022-12-12T04:53:37.534Z,100168.06
2022-12-12T04:56:07.430Z,100172.50
2022-12-12T04:58:34.394Z,100181.34
2022-12-12T05:01:07.336Z,100179.69
2022-12-12T05:03:52.672Z,100180.63
2022-12-12T05:06:26.385Z,100181.63
2022-12-12T05:08:53.871Z,100185.22
2022-12-12T05:11:22.200Z,100187.84
2022-12-12T05:13:49.183Z,100186.19
2022-12-12T05:16:22.951Z,100184.38
2022-12-12T05:18:49.629Z,100193.75
2022-12-12T05:21:16.404Z,100192.94
2022-12-12T05:23:42.799Z,100181.97
2022-12-12T05:26:29.544Z,100188.13
2022-12-12T05:28:56.402Z,100190.34
2022-12-12T05:31:23.015Z,100189.63
2022-12-12T05:33:49.839Z,100178.81
2022-12-12T05:36:16.406Z,100183.34
2022-12-12T05:38:44.026Z,100173.41
2022-12-12T05:41:10.495Z,100175.19
2022-12-12T05:43:37.435Z,100181.34
2022-12-12T05:46:04.246Z,100183.22
2022-12-12T05:48:31.042Z,100179.19
2022-12-12T05:50:57.489Z,100183.88
2022-12-12T05:53:23.962Z,100189.25
2022-12-12T05:55:51.466Z,100186.34
2022-12-12T05:58:18.308Z,100187.09
2022-12-12T06:00:46.581Z,100192.84
2022-12-12T06:03:12.948Z,100197.72
2022-12-12T06:05:39.278Z,100202.63
2022-12-12T06:08:05.738Z,100204.03
2022-12-12T06:10:32.136Z,100207.38
2022-12-12T06:12:58.520Z,100203.78
2022-12-12T06:15:24.913Z,100209.72
2022-12-12T06:17:55.071Z,100216.66
2022-12-12T06:20:21.465Z,100212.34
2022-12-12T06:22:53.411Z,100213.59
2022-12-12T06:25:20.622Z,100218.50
2022-12-12T06:27:46.974Z,100210.97
2022-12-12T06:30:13.449Z,100217.34
2022-12-12T06:32:39.778Z,100217.56
2022-12-12T06:35:06.252Z,100211.34
2022-12-12T06:37:32.674Z,100215.38
2022-12-12T06:39:59.058Z,100227.31
2022-12-12T06:42:25.446Z,100221.44
2022-12-12T06:44:51.854Z,100220.88
2022-12-12T06:47:18.228Z,100221.91
2022-12-12T06:49:44.557Z,100218.56
2022-12-12T06:52:10.975Z,100229.03
2022-12-12T06:54:37.334Z,100229.91
2022-12-12T06:57:03.761Z,100234.09
2022-12-12T06:59:30.364Z,100232.38
2022-12-12T07:01:57.299Z,100233.09
2022-12-12T07:04:23.786Z,100239.13
2022-12-12T07:06:50.220Z,100238.44
2022-12-12T07:09:16.598Z,100243.50
2022-12-12T07:11:42.941Z,100238.78
2022-12-12T07:14:09.997Z,100238.56
2022-12-12T07:16:36.468Z,100244.94
2022-12-12T07:19:02.855Z,100249.34
2022-12-12T07:21:31.789Z,100254.50
2022-12-12T07:23:58.154Z,100254.31
2022-12-12T07:26:24.634Z,100256.91
2022-12-12T07:28:51.788Z,100262.59
2022-12-12T07:31:20.086Z,100259.66
2022-12-12T07:33:46.532Z,100261.16
2022-12-12T07:36:13.594Z,100258.66
2022-12-12T07:38:39.995Z,100264.91
2022-12-12T07:41:07.776Z,100259.06
2022-12-12T07:43:42.901Z,100261.28
2022-12-12T07:46:11.197Z,100255.41
2022-12-12T07:48:37.681Z,100255.31
2022-12-12T07:51:04.076Z,100265.88
2022-12-12T07:53:30.743Z,100265.13
2022-12-12T07:55:57.154Z,100274.16
2022-12-12T07:58:23.880Z,100276.03
2022-12-12T08:00:50.269Z,100267.31
2022-12-12T08:03:16.679Z,100274.66
2022-12-12T08:05:43.255Z,100272.25
2022-12-12T08:08:09.993Z,100272.47
2022-12-12T08:10:38.407Z,100278.69
2022-12-12T08:13:04.795Z,100278.31
2022-12-12T08:15:31.130Z,100275.38
2022-12-12T08:17:57.495Z,100280.78
2022-12-12T08:20:23.839Z,100283.22
2022-12-12T08:22:50.213Z,100281.69
2022-12-12T08:25:17.001Z,100280.19
2022-12-12T08:27:43.479Z,100285.94
2022-12-12T08:30:10.095Z,100286.22
2022-12-12T08:32:36.809Z,100284.47
2022-12-12T08:35:03.716Z,100286.19
2022-12-12T08:37:30.183Z,100283.44
2022-12-12T08:39:56.612Z,100285.63
2022-12-12T08:42:22.984Z,100286.00
2022-12-12T08:44:50.040Z,100278.25
2022-12-12T08:47:16.548Z,100282.59
2022-12-12T08:49:42.980Z,100286.88
2022-12-12T08:52:10.419Z,100285.06
2022-12-12T08:54:38.025Z,100288.25
2022-12-12T08:57:04.433Z,100286.44
2022-12-12T08:59:30.820Z,100293.22
2022-12-12T09:01:57.323Z,100285.75
2022-12-12T09:04:23.868Z,100284.13
2022-12-12T09:06:50.340Z,100288.59
2022-12-12T09:09:16.775Z,100294.72
2022-12-12T09:11:43.824Z,100294.56
2022-12-12T09:14:10.262Z,100293.72
2022-12-12T09:16:36.807Z,100293.88
2022-12-12T09:19:03.322Z,100298.19
2022-12-12T09:21:29.808Z,100294.66
2022-12-12T09:23:56.317Z,100295.81
2022-12-12T09:26:22.730Z,100301.56
2022-12-12T09:28:49.181Z,100296.56
2022-12-12T09:31:15.673Z,100300.31
2022-12-12T09:33:43.268Z,100290.81
2022-12-12T09:36:10.812Z,100294.72
2022-12-12T09:38:37.294Z,100295.81
2022-12-12T09:41:10.684Z,100292.28
2022-12-12T09:43:46.354Z,100294.88
2022-12-12T09:46:16.169Z,100300.16
2022-12-12T09:48:44.248Z,100296.97
2022-12-12T09:51:11.334Z,100296.47
2022-12-12T09:53:40.147Z,100289.97
2022-12-12T09:56:12.499Z,100289.25
2022-12-12T09:58:43.400Z,100287.25
2022-12-12T10:01:15.967Z,100286.91
2022-12-12T10:03:54.592Z,100291.84
2022-12-12T10:06:37.166Z,100292.31
2022-12-12T10:09:23.172Z,100292.63
2022-12-12T10:11:50.228Z,100292.91
2022-12-12T10:14:25.634Z,100296.50
2022-12-12T10:16:57.491Z,100289.13
2022-12-12T10:19:27.951Z,100294.53
2022-12-12T10:21:56.812Z,100290.97
2022-12-12T10:24:30.229Z,100299.25
2022-12-12T10:26:57.728Z,100301.81
2022-12-12T10:29:25.492Z,100301.91
2022-12-12T10:31:51.883Z,100301.03
2022-12-12T10:34:35.270Z,100306.25
2022-12-12T10:37:20.447Z,100305.16
2022-12-12T10:40:05.428Z,100305.34
2022-12-12T10:42:40.964Z,100301.03
2022-12-12T10:45:19.540Z,100300.41
2022-12-12T10:47:46.605Z,100303.88
2022-12-12T10:50:16.047Z,100296.88
2022-12-12T10:52:42.452Z,100288.22
2022-12-12T10:55:16.611Z,100285.91
2022-12-12T10:57:43.049Z,100283.97
2022-12-12T11:00:17.140Z,100287.63
2022-12-12T11:02:44.824Z,100281.00
2022-12-12T11:05:21.021Z,100279.06
2022-12-12T11:07:49.298Z,100283.09
2022-12-12T11:10:35.432Z,100276.47
2022-12-12T11:13:01.805Z,100282.75
2022-12-12T11:15:30.468Z,100286.75
2022-12-12T11:18:02.724Z,100284.38
2022-12-12T11:20:32.513Z,100282.03
2022-12-12T11:22:59.328Z,100273.66
2022-12-12T11:25:30.630Z,100265.31
2022-12-12T11:28:03.398Z,100272.94
2022-12-12T11:30:36.333Z,100269.91
2022-12-12T11:33:04.990Z,100266.19
2022-12-12T11:35:36.174Z,100268.47
2022-12-12T11:38:05.150Z,100261.47
2022-12-12T11:40:35.603Z,100258.19
2022-12-12T11:43:14.094Z,100265.56
2022-12-12T11:45:40.549Z,100257.94
2022-12-12T11:48:25.593Z,100261.41
2022-12-12T11:50:52.037Z,100264.69
2022-12-12T11:53:18.481Z,100256.44
2022-12-12T11:55:47.921Z,100255.19
2022-12-12T11:58:24.415Z,100254.72
2022-12-12T12:00:57.237Z,100265.41
2022-12-12T12:03:23.826Z,100262.31
2022-12-12T12:06:01.382Z,100265.56
2022-12-12T12:08:28.874Z,100262.63
2022-12-12T12:10:55.314Z,100257.44
2022-12-12T12:13:30.909Z,100257.84
2022-12-12T12:16:03.478Z,100258.25
2022-12-12T12:18:48.663Z,100248.75
2022-12-12T12:21:27.923Z,100253.25
2022-12-12T12:24:07.808Z,100242.09
2022-12-12T12:26:52.631Z,100248.22
2022-12-12T12:29:30.074Z,100245.28
2022-12-12T12:32:18.064Z,100232.22
2022-12-12T12:34:50.464Z,100228.84
2022-12-12T12:37:17.546Z,100237.22
2022-12-12T12:40:02.746Z,100231.59
2022-12-12T12:42:49.858Z,100235.66
2022-12-12T12:45:16.772Z,100231.66
2022-12-12T12:47:52.591Z,100235.66
2022-12-12T12:50:25.161Z,100233.75
2022-12-12T12:52:57.579Z,100235.56
2022-12-12T12:55:27.731Z,100228.94
2022-12-12T12:57:54.336Z,100227.66
2022-12-12T13:00:22.283Z,100243.19
2022-12-12T13:02:57.949Z,100237.22
2022-12-12T13:05:24.419Z,100236.81
2022-12-12T13:08:05.289Z,100241.34
2022-12-12T13:10:32.072Z,100226.78
2022-12-12T13:13:01.323Z,100231.06
2022-12-12T13:15:33.353Z,100227.81
2022-12-12T13:18:01.615Z,100225.25
2022-12-12T13:20:29.883Z,100221.09
2022-12-12T13:22:56.219Z,100216.19
2022-12-12T13:25:25.323Z,100217.84
2022-12-12T13:27:53.355Z,100216.91
2022-12-12T13:30:22.181Z,100226.09
2022-12-12T13:32:48.519Z,100221.03
2022-12-12T13:35:17.961Z,100216.22
2022-12-12T13:37:47.215Z,100222.72
2022-12-12T13:40:28.409Z,100223.63
2022-12-12T13:43:05.527Z,100227.81
2022-12-12T13:45:38.214Z,100231.19
2022-12-12T13:48:05.995Z,100229.16
2022-12-12T13:50:32.759Z,100235.00
2022-12-12T13:53:19.767Z,100224.91
2022-12-12T13:55:46.333Z,100234.09
2022-12-12T13:58:20.011Z,100233.13
2022-12-12T14:00:46.688Z,100233.66
2022-12-12T14:03:20.889Z,100233.13
2022-12-12T14:05:51.460Z,100234.69
2022-12-12T14:08:18.493Z,100236.44
2022-12-12T14:10:48.015Z,100235.72
2022-12-12T14:13:23.880Z,100225.94
2022-12-12T14:15:59.436Z,100234.69
2022-12-12T14:18:30.293Z,100235.19
2022-12-12T14:21:00.665Z,100235.47
2022-12-12T14:23:28.680Z,100232.84
2022-12-12T14:25:55.268Z,100239.28
2022-12-12T14:28:23.235Z,100239.31
2022-12-12T14:30:56.983Z,100237.50
2022-12-12T14:33:23.352Z,100234.28
2022-12-12T14:35:55.684Z,100235.94
2022-12-12T14:38:27.702Z,100237.22
2022-12-12T14:40:57.138Z,100240.59
2022-12-12T14:43:30.578Z,100242.91
2022-12-12T14:45:58.030Z,100243.59
2022-12-12T14:48:24.546Z,100246.91
2022-12-12T14:51:00.190Z,100244.03
2022-12-12T14:53:38.418Z,100252.94
2022-12-12T14:56:21.626Z,100257.28
2022-12-12T14:58:54.029Z,100257.72
2022-12-12T15:01:29.159Z,100263.91
2022-12-12T15:03:57.416Z,100262.28
2022-12-12T15:06:23.803Z,100256.13
2022-12-12T15:08:53.508Z,100253.66
2022-12-12T15:11:24.249Z,100261.88
2022-12-12T15:13:51.864Z,100260.59
2022-12-12T15:16:19.277Z,100258.50
2022-12-12T15:18:46.146Z,100261.34
2022-12-12T15:21:13.433Z,100265.00
2022-12-12T15:23:40.827Z,100263.25
2022-12-12T15:26:13.388Z,100262.38
2022-12-12T15:28:42.431Z,100263.53
2022-12-12T15:31:13.204Z,100265.50
2022-12-12T15:33:39.828Z,100266.44
2022-12-12T15:36:16.407Z,100268.00
2022-12-12T15:38:42.856Z,100275.91
2022-12-12T15:41:13.235Z,100271.06
2022-12-12T15:43:40.900Z,100278.59
2022-12-12T15:46:15.144Z,100270.09
2022-12-12T15:48:42.679Z,100275.56
2022-12-12T15:51:10.337Z,100277.06
2022-12-12T15:53:38.686Z,100267.94
2022-12-12T15:56:13.253Z,100278.91
2022-12-12T15:58:41.288Z,100280.59
2022-12-12T16:01:20.994Z,100276.97
2022-12-12T16:04:06.903Z,100277.19
2022-12-12T16:06:35.232Z,100280.88
2022-12-12T16:09:16.141Z,100280.03
2022-12-12T16:11:47.112Z,100285.16
2022-12-12T16:14:37.015Z,100283.97
2022-12-12T16:17:05.281Z,100292.56
2022-12-12T16:19:37.929Z,100284.22
2022-12-12T16:22:06.024Z,100285.31
2022-12-12T16:24:32.965Z,100294.34
2022-12-12T16:27:00.207Z,100290.78
2022-12-12T16:29:26.671Z,100297.16
2022-12-12T16:31:53.269Z,100292.06
2022-12-12T16:34:19.763Z,100297.25
2022-12-12T16:36:46.449Z,100286.41
2022-12-12T16:39:13.869Z,100294.81
2022-12-12T16:41:40.608Z,100286.06
2022-12-12T16:44:07.239Z,100295.25
2022-12-12T16:46:36.165Z,100293.81
2022-12-12T16:49:04.780Z,100297.34
2022-12-12T16:51:33.663Z,100295.72
2022-12-12T16:54:00.219Z,100286.81
2022-12-12T16:56:26.702Z,100290.34
2022-12-12T16:58:56.292Z,100297.16
2022-12-12T17:01:28.870Z,100301.47
2022-12-12T17:03:55.450Z,100303.16
2022-12-12T17:06:21.882Z,100306.50
2022-12-12T17:08:48.548Z,100306.34
2022-12-12T17:11:15.097Z,100308.69
2022-12-12T17:13:46.982Z,100299.59
2022-12-12T17:16:13.471Z,100302.09
2022-12-12T17:18:39.971Z,100307.06
2022-12-12T17:21:06.554Z,100297.97
2022-12-12T17:23:33.249Z,100309.25
2022-12-12T17:26:04.384Z,100303.63
2022-12-12T17:28:32.863Z,100306.09
2022-12-12T17:30:59.797Z,100304.78
2022-12-12T17:33:26.738Z,100308.94
2022-12-12T17:36:02.849Z,100308.59
2022-12-12T17:38:30.640Z,100309.94
2022-12-12T17:40:57.289Z,100304.31
2022-12-12T17:43:24.648Z,100309.13
2022-12-12T17:46:01.651Z,100312.25
2022-12-12T17:48:29.666Z,100305.81
2022-12-12T17:50:57.391Z,100309.97
2022-12-12T17:56:01.632Z,100306.81
2022-12-12T17:58:37.638Z,100307.44
2022-12-12T18:01:14.504Z,100301.97
2022-12-12T23:56:04.696Z,100308.00
2022-12-12T23:58:31.145Z,100300.53
